Main page
METAR-TAF:

METAR-TAF

Airports :

Gwalior, India

Rajmata Vijaya Raje Scindia Airport

latitude: 26-17-36N, longitude: 78-13-40E, elevation: 188 m

Current weather observation

The report was made 2 hours and 36 minutes ago, at 18:00 UTC
Wind 3 kt from the South
Temperature 27°C
Humidity 58%
Pressure 1006 hPa
Visibility: 4000 m
Few clouds at a height of 2500 ft
haze

METAR: VIGR 301800Z 18003KT 4000 HZ FEW025 27/18 Q1006

Time: 02:06 (20:36 UTC)


TAF: missing

Weather observations and forecasts of more than 4000 airports (METAR and TAF reports).

The available stations are represented by yellow and red dots on the map.

Hover mouse over dot to see the name of the station.

Then click to see weather observations and forecasts.

To change the map : click on the green buttons with a black cross to zoom in, on the green button with a dash to zoom out, or on the green arrows for adjacent maps.


METAR-TAF: